Time;durP1;ratioP1;P1;durP2;ratioP2;P2;SDS_P1;SDS_P2;PMS_P1;PMS_P2;Temp;Humidity;BMP_temperature;BMP_pressure;BME280_temperature;BME280_humidity;BME280_pressure;Samples;Min_cycle;Max_cycle;Signal;HPM_P1;HPM_P2
2021/12/08 00:01:28;;;;;;;50.20;24.95;;;2.40;99.90;;;;;;5102723;28;20815;-70
2021/12/08 00:03:56;;;;;;;39.95;22.80;;;2.50;99.90;;;;;;5100340;28;20214;-69
2021/12/08 00:06:24;;;;;;;47.80;23.58;;;2.40;99.90;;;;;;5100106;28;20262;-67
2021/12/08 00:09:06;;;;;;;41.63;25.17;;;2.40;99.90;;;;;;5099915;28;20283;-68
2021/12/08 00:14:21;;;;;;;41.70;21.77;;;2.40;99.90;;;;;;5099294;28;20248;-70
2021/12/08 00:16:49;;;;;;;41.10;23.95;;;2.30;99.90;;;;;;5099414;28;20196;-70
2021/12/08 00:19:17;;;;;;;45.30;24.05;;;2.40;99.90;;;;;;5099541;28;20247;-70
2021/12/08 00:21:45;;;;;;;46.63;25.48;;;2.30;99.90;;;;;;5099807;28;20196;-70
2021/12/08 00:24:13;;;;;;;47.92;24.75;;;2.30;99.90;;;;;;5098413;27;20294;-69
2021/12/08 00:26:42;;;;;;;45.22;23.05;;;2.30;99.90;;;;;;5101404;28;20251;-71
2021/12/08 00:29:10;;;;;;;49.60;26.60;;;2.30;99.90;;;;;;5105291;28;20784;-68
2021/12/08 00:31:40;;;;;;;47.08;26.25;;;2.20;99.90;;;;;;5121507;28;20307;-68
2021/12/08 00:34:07;;;;;;;46.35;24.00;;;2.20;99.90;;;;;;5105637;28;20203;-68
2021/12/08 00:36:42;;;;;;;44.15;24.73;;;2.30;99.90;;;;;;5100845;28;20872;-70
2021/12/08 00:39:11;;;;;;;51.42;25.92;;;2.30;99.90;;;;;;5101039;28;20701;-71
2021/12/08 00:41:39;;;;;;;46.47;23.30;;;2.30;99.90;;;;;;5099707;27;20196;-71
2021/12/08 00:44:08;;;;;;;46.05;24.80;;;2.30;99.90;;;;;;5099591;28;20715;-70
2021/12/08 00:46:37;;;;;;;49.30;23.70;;;2.30;99.90;;;;;;5099485;28;20199;-67
2021/12/08 00:49:05;;;;;;;48.45;24.40;;;2.30;99.90;;;;;;5099220;28;20215;-71
2021/12/08 00:51:33;;;;;;;50.22;26.67;;;2.20;99.90;;;;;;5099420;28;20283;-70
2021/12/08 00:54:01;;;;;;;49.53;23.67;;;2.20;99.90;;;;;;5099359;27;20767;-71
2021/12/08 00:56:30;;;;;;;47.17;23.77;;;2.20;99.90;;;;;;5099980;28;20770;-69
2021/12/08 00:58:58;;;;;;;49.08;24.35;;;2.20;99.90;;;;;;5112929;28;20330;-66
2021/12/08 01:01:31;;;;;;;47.30;23.80;;;2.20;99.90;;;;;;5122313;28;20196;-70
2021/12/08 01:03:59;;;;;;;49.63;24.38;;;2.20;99.90;;;;;;5107514;27;20203;-69
2021/12/08 01:06:27;;;;;;;44.28;22.58;;;2.20;99.90;;;;;;5099663;28;20253;-70
2021/12/08 01:08:55;;;;;;;43.10;23.17;;;2.20;99.90;;;;;;5098640;28;20223;-71
2021/12/08 01:11:23;;;;;;;55.40;24.85;;;2.20;99.90;;;;;;5098968;28;20647;-71
2021/12/08 01:13:53;;;;;;;43.65;23.27;;;2.20;99.90;;;;;;5098769;28;20287;-70
2021/12/08 01:16:22;;;;;;;44.60;23.10;;;2.30;99.90;;;;;;5098504;28;20310;-71
2021/12/08 01:18:52;;;;;;;46.08;25.98;;;2.30;99.90;;;;;;5098999;27;20215;-68
2021/12/08 01:21:20;;;;;;;48.97;22.75;;;2.30;99.90;;;;;;5100148;28;20294;-71
2021/12/08 01:23:48;;;;;;;45.67;23.45;;;2.30;99.90;;;;;;5101208;28;20904;-71
2021/12/08 01:26:16;;;;;;;52.22;23.42;;;2.30;99.90;;;;;;5101326;28;20814;-69
2021/12/08 01:28:44;;;;;;;44.95;23.08;;;2.30;99.90;;;;;;5101199;28;20238;-68
2021/12/08 01:31:12;;;;;;;46.60;22.35;;;2.30;99.90;;;;;;5100518;28;20203;-71
2021/12/08 01:33:40;;;;;;;47.63;21.40;;;2.30;99.90;;;;;;5099478;28;20238;-71
2021/12/08 01:36:10;;;;;;;47.15;23.15;;;2.40;99.90;;;;;;5099458;28;20279;-69
2021/12/08 01:38:38;;;;;;;45.55;23.15;;;2.30;99.90;;;;;;5098300;28;20599;-70
2021/12/08 01:41:07;;;;;;;42.72;20.58;;;2.40;99.90;;;;;;5098882;28;20195;-71
2021/12/08 01:43:43;;;;;;;43.35;22.20;;;2.50;99.90;;;;;;5099031;28;20295;-70
2021/12/08 01:46:12;;;;;;;42.08;21.77;;;2.40;99.90;;;;;;5098532;27;20211;-68
2021/12/08 01:48:43;;;;;;;41.45;21.27;;;2.40;99.90;;;;;;5098457;28;20251;-69
2021/12/08 01:51:15;;;;;;;46.50;22.27;;;2.40;99.90;;;;;;5098480;28;20272;-71
2021/12/08 01:53:46;;;;;;;44.45;21.67;;;2.40;99.90;;;;;;5097863;28;20738;-71
2021/12/08 01:56:15;;;;;;;38.00;22.88;;;2.40;99.90;;;;;;5098729;28;20286;-70
2021/12/08 01:58:43;;;;;;;38.95;21.67;;;2.50;99.90;;;;;;5098159;28;20223;-70
2021/12/08 02:01:14;;;;;;;39.50;21.77;;;2.50;99.90;;;;;;5103639;28;20666;-70
2021/12/08 02:03:44;;;;;;;43.30;20.35;;;2.40;99.90;;;;;;5101763;28;20227;-70
2021/12/08 02:06:17;;;;;;;42.95;21.88;;;2.50;99.90;;;;;;5102831;28;20287;-68
2021/12/08 02:08:46;;;;;;;41.60;22.90;;;2.60;99.90;;;;;;5099434;28;20226;-70
2021/12/08 02:11:14;;;;;;;36.75;20.50;;;2.60;99.90;;;;;;5098561;28;20199;-69
2021/12/08 02:13:43;;;;;;;39.53;21.17;;;2.60;99.90;;;;;;5099441;28;20200;-69
2021/12/08 02:16:14;;;;;;;41.30;20.33;;;2.60;99.90;;;;;;5102011;28;20202;-69
2021/12/08 02:18:44;;;;;;;40.42;21.55;;;2.60;99.90;;;;;;5101801;28;20224;-70
2021/12/08 02:21:23;;;;;;;37.17;22.05;;;2.60;99.90;;;;;;5101754;28;20286;-69
2021/12/08 02:23:51;;;;;;;44.55;23.58;;;2.60;99.90;;;;;;5101781;28;20234;-69
2021/12/08 02:26:19;;;;;;;38.90;22.40;;;2.60;99.90;;;;;;5101676;28;20299;-70
2021/12/08 02:28:47;;;;;;;37.38;22.08;;;2.50;99.90;;;;;;5101812;28;20219;-69
2021/12/08 02:31:21;;;;;;;35.42;20.63;;;2.50;99.90;;;;;;5101614;28;20773;-71
2021/12/08 02:47:52;;;;;;;40.40;21.20;;;2.40;99.90;;;;;;5101378;28;20394;-72
2021/12/08 02:50:23;;;;;;;40.20;18.80;;;2.40;99.90;;;;;;5102197;28;20316;-71
2021/12/08 02:52:54;;;;;;;40.35;20.08;;;2.40;99.90;;;;;;5102020;28;20302;-70
2021/12/08 02:55:23;;;;;;;39.13;19.20;;;2.50;99.90;;;;;;5102406;28;20195;-71
2021/12/08 02:57:51;;;;;;;37.05;18.60;;;2.50;99.90;;;;;;5110849;28;20325;-70
2021/12/08 03:00:23;;;;;;;32.55;19.30;;;2.40;99.90;;;;;;5123008;28;20215;-67
2021/12/08 03:02:52;;;;;;;37.58;19.73;;;2.50;99.90;;;;;;5102638;28;20200;-66
2021/12/08 03:05:20;;;;;;;34.63;19.02;;;2.50;99.90;;;;;;5102111;27;20212;-68
2021/12/08 03:07:48;;;;;;;30.75;17.25;;;2.50;99.90;;;;;;5101274;28;20260;-68
2021/12/08 03:10:22;;;;;;;35.42;19.30;;;2.50;99.90;;;;;;5101802;28;20318;-69
2021/12/08 03:12:50;;;;;;;38.15;17.88;;;2.50;99.90;;;;;;5101608;28;20290;-69
2021/12/08 03:15:18;;;;;;;38.95;20.60;;;2.50;99.90;;;;;;5102383;28;20201;-68
2021/12/08 03:17:46;;;;;;;31.45;17.52;;;2.50;99.90;;;;;;5103436;28;20282;-70
2021/12/08 03:20:19;;;;;;;40.00;20.25;;;2.40;99.90;;;;;;5103147;28;20503;-70
2021/12/08 03:22:50;;;;;;;34.92;19.35;;;2.40;99.90;;;;;;5123851;28;20263;-69
2021/12/08 03:25:23;;;;;;;32.70;19.05;;;2.40;99.90;;;;;;5115343;28;20200;-69
2021/12/08 03:28:03;;;;;;;31.73;18.75;;;2.40;99.90;;;;;;5101830;28;20199;-70
2021/12/08 03:30:37;;;;;;;29.98;17.20;;;2.50;99.90;;;;;;5101143;28;20227;-68
2021/12/08 03:33:05;;;;;;;36.20;18.88;;;2.40;99.90;;;;;;5101551;28;20206;-68
2021/12/08 03:35:33;;;;;;;34.55;18.50;;;2.40;99.90;;;;;;5101426;28;20196;-70
2021/12/08 03:38:00;;;;;;;28.73;16.70;;;2.40;99.90;;;;;;5100733;28;20245;-68
2021/12/08 03:40:32;;;;;;;33.83;18.45;;;2.50;99.90;;;;;;5100266;27;20307;-68
2021/12/08 03:43:00;;;;;;;33.45;17.60;;;2.50;99.90;;;;;;5100860;28;20291;-68
2021/12/08 03:45:32;;;;;;;35.20;17.23;;;2.50;99.90;;;;;;5100824;28;20253;-68
2021/12/08 03:48:04;;;;;;;35.72;17.85;;;2.60;99.90;;;;;;5101078;28;20799;-69
2021/12/08 03:50:35;;;;;;;34.53;18.23;;;2.50;99.90;;;;;;5101205;28;20223;-68
2021/12/08 03:53:04;;;;;;;34.83;17.55;;;2.60;99.90;;;;;;5101304;27;20295;-70
2021/12/08 03:55:33;;;;;;;31.50;18.83;;;2.60;99.90;;;;;;5101416;28;20200;-71
2021/12/08 03:58:01;;;;;;;33.53;18.02;;;2.50;99.90;;;;;;5102732;28;20204;-70
2021/12/08 04:00:30;;;;;;;32.60;16.55;;;2.60;99.90;;;;;;5100697;28;20222;-71
2021/12/08 04:03:02;;;;;;;30.27;16.40;;;2.60;99.90;;;;;;5100249;28;20276;-71
2021/12/08 04:05:41;;;;;;;34.63;16.85;;;2.70;99.90;;;;;;5100402;28;20234;-69
2021/12/08 04:08:15;;;;;;;29.80;15.43;;;2.70;99.90;;;;;;5099823;28;20222;-70
2021/12/08 04:10:48;;;;;;;29.27;18.00;;;2.80;99.90;;;;;;5101123;28;20202;-70
2021/12/08 04:13:17;;;;;;;21.35;14.65;;;2.80;99.90;;;;;;5100923;28;20221;-68
2021/12/08 04:15:45;;;;;;;31.08;16.95;;;2.80;99.90;;;;;;5101914;28;20195;-70
2021/12/08 04:18:13;;;;;;;26.42;15.23;;;2.80;99.90;;;;;;5101085;28;20195;-70
2021/12/08 04:20:46;;;;;;;23.83;14.55;;;2.80;99.90;;;;;;5099867;28;20834;-69
2021/12/08 04:23:16;;;;;;;22.17;13.95;;;2.70;99.90;;;;;;5100578;28;20290;-70
2021/12/08 04:25:50;;;;;;;32.25;16.63;;;2.70;99.90;;;;;;5100006;27;20204;-70
2021/12/08 04:28:23;;;;;;;25.80;14.18;;;2.60;99.90;;;;;;5099989;28;20200;-70
2021/12/08 04:30:54;;;;;;;30.60;16.52;;;2.70;99.90;;;;;;5099549;28;20203;-70
2021/12/08 04:33:22;;;;;;;28.63;14.70;;;2.70;99.90;;;;;;5099305;28;20718;-70
2021/12/08 04:35:53;;;;;;;28.45;15.68;;;2.70;99.90;;;;;;5099875;28;20205;-71
2021/12/08 04:38:27;;;;;;;26.08;14.63;;;2.70;99.90;;;;;;5098470;28;20191;-71
2021/12/08 04:41:03;;;;;;;20.38;12.68;;;2.80;99.90;;;;;;5101113;27;20276;-70
2021/12/08 04:43:44;;;;;;;26.80;14.50;;;2.70;99.90;;;;;;5099326;28;20828;-70
2021/12/08 04:46:22;;;;;;;26.90;15.43;;;2.80;99.90;;;;;;5099462;28;20199;-70
2021/12/08 04:51:45;;;;;;;22.98;14.40;;;2.90;99.90;;;;;;5098773;28;20838;-70
2021/12/08 05:00:26;;;;;;;25.63;16.00;;;2.90;99.90;;;;;;5098943;28;20744;-69
2021/12/08 05:03:20;;;;;;;21.67;13.55;;;2.70;99.90;;;;;;5098969;28;20211;-69
2021/12/08 05:06:05;;;;;;;27.75;15.52;;;2.50;99.90;;;;;;5099388;28;20229;-70
2021/12/08 05:08:41;;;;;;;24.70;16.20;;;2.30;99.90;;;;;;5099083;28;20256;-68
2021/12/08 05:11:14;;;;;;;27.25;15.52;;;2.20;99.90;;;;;;5099146;28;20218;-70
2021/12/08 05:13:45;;;;;;;29.30;15.75;;;2.20;99.90;;;;;;5098782;28;20195;-68
2021/12/08 05:16:14;;;;;;;27.77;15.95;;;2.00;99.90;;;;;;5099108;28;20287;-70
2021/12/08 05:18:44;;;;;;;29.45;16.23;;;2.10;99.90;;;;;;5098426;28;20716;-70
2021/12/08 05:21:16;;;;;;;32.03;17.15;;;2.00;99.90;;;;;;5098996;28;20195;-70
2021/12/08 05:23:48;;;;;;;30.80;17.83;;;2.00;99.90;;;;;;5098677;28;20200;-71
2021/12/08 05:26:24;;;;;;;33.08;17.23;;;1.90;99.90;;;;;;5098506;28;20199;-68
2021/12/08 05:28:55;;;;;;;30.15;16.42;;;1.90;99.90;;;;;;5098150;28;20215;-67
2021/12/08 05:31:26;;;;;;;27.08;16.90;;;1.80;99.90;;;;;;5099507;28;20286;-68
2021/12/08 05:33:55;;;;;;;30.42;17.75;;;1.80;99.90;;;;;;5099033;28;20231;-69
2021/12/08 05:36:24;;;;;;;35.42;17.75;;;1.80;99.90;;;;;;5100554;28;20271;-64
2021/12/08 05:38:55;;;;;;;32.25;17.83;;;1.70;99.90;;;;;;5099655;28;20306;-65
2021/12/08 05:41:28;;;;;;;34.55;18.30;;;1.70;99.90;;;;;;5099749;28;20215;-62
2021/12/08 05:43:57;;;;;;;27.83;16.48;;;1.70;99.90;;;;;;5100118;28;20215;-63
2021/12/08 05:46:28;;;;;;;39.80;19.27;;;1.60;99.90;;;;;;5118350;27;20206;-64
2021/12/08 05:48:56;;;;;;;28.05;16.20;;;1.50;99.90;;;;;;5110563;28;20305;-62
2021/12/08 05:51:26;;;;;;;29.95;17.30;;;1.60;99.90;;;;;;5103530;28;20229;-63
2021/12/08 05:54:02;;;;;;;38.53;18.10;;;1.70;99.90;;;;;;5102876;28;20199;-65
2021/12/08 05:56:32;;;;;;;37.25;20.00;;;1.60;99.90;;;;;;5103312;28;20231;-63
2021/12/08 05:59:03;;;;;;;34.50;20.67;;;1.60;99.90;;;;;;5105050;27;20226;-65
2021/12/08 06:01:35;;;;;;;33.58;18.25;;;1.60;99.90;;;;;;5112562;27;20279;-64
2021/12/08 06:04:05;;;;;;;35.67;20.27;;;1.60;99.90;;;;;;5111131;27;20290;-65
2021/12/08 06:06:35;;;;;;;39.72;20.17;;;1.60;99.90;;;;;;5102826;27;20234;-65
2021/12/08 06:09:05;;;;;;;37.67;18.92;;;1.60;99.90;;;;;;5112168;27;20225;-64
2021/12/08 06:11:34;;;;;;;36.00;19.95;;;1.60;99.90;;;;;;5112904;27;20222;-67
2021/12/08 06:14:07;;;;;;;34.63;19.48;;;1.60;99.90;;;;;;5112789;27;20863;-64
2021/12/08 06:16:37;;;;;;;33.08;18.58;;;1.40;99.90;;;;;;5111612;27;20248;-64
2021/12/08 06:19:06;;;;;;;32.63;18.95;;;1.40;99.90;;;;;;5124719;27;20219;-64
2021/12/08 06:21:34;;;;;;;32.67;19.20;;;1.40;99.90;;;;;;5127250;27;20195;-66
2021/12/08 06:24:05;;;;;;;35.67;18.92;;;1.40;99.90;;;;;;5125835;27;20641;-64
2021/12/08 06:26:34;;;;;;;39.15;20.30;;;1.40;99.90;;;;;;5123189;27;20206;-63
2021/12/08 06:29:06;;;;;;;36.70;21.58;;;1.30;99.90;;;;;;5122843;27;20707;-64
2021/12/08 06:31:35;;;;;;;39.80;20.67;;;1.30;99.90;;;;;;5122032;27;20223;-65
2021/12/08 06:34:04;;;;;;;41.25;20.80;;;1.30;99.90;;;;;;5114904;27;20582;-65
2021/12/08 06:36:36;;;;;;;35.28;18.15;;;1.30;99.90;;;;;;5102241;28;20204;-63
2021/12/08 06:39:07;;;;;;;39.25;20.60;;;1.30;99.90;;;;;;5102945;28;20443;-64
2021/12/08 06:41:38;;;;;;;39.17;19.70;;;1.30;99.90;;;;;;5106522;27;20246;-65
2021/12/08 06:44:16;;;;;;;44.40;21.60;;;1.30;99.90;;;;;;5117877;27;20203;-64
2021/12/08 06:46:46;;;;;;;46.13;23.10;;;1.30;99.90;;;;;;5124507;27;20269;-65
2021/12/08 06:49:17;;;;;;;38.28;23.05;;;1.30;99.90;;;;;;5124623;27;20812;-64
2021/12/08 06:51:48;;;;;;;40.15;22.25;;;1.40;99.90;;;;;;5122690;27;20230;-65
2021/12/08 06:54:21;;;;;;;39.05;20.50;;;1.40;99.90;;;;;;5122289;27;20206;-64
2021/12/08 06:56:54;;;;;;;43.35;23.27;;;1.40;99.90;;;;;;5122450;27;20230;-63
2021/12/08 06:59:31;;;;;;;43.70;23.55;;;1.50;99.90;;;;;;5121214;27;20221;-65
2021/12/08 07:02:05;;;;;;;42.70;22.83;;;1.50;99.90;;;;;;5120590;27;20361;-63
2021/12/08 07:04:51;;;;;;;41.85;21.85;;;1.60;99.90;;;;;;5120802;27;20209;-63
2021/12/08 07:07:22;;;;;;;49.30;22.58;;;1.50;99.90;;;;;;5121119;27;20289;-64
2021/12/08 07:09:53;;;;;;;40.72;21.33;;;1.60;99.90;;;;;;5121198;27;20313;-64
2021/12/08 07:12:26;;;;;;;45.17;22.88;;;1.70;99.90;;;;;;5120908;27;20285;-68
2021/12/08 07:14:59;;;;;;;44.33;23.20;;;1.70;99.90;;;;;;5121362;27;20214;-69
2021/12/08 07:17:33;;;;;;;47.00;24.13;;;1.60;99.90;;;;;;5123178;27;20207;-68
2021/12/08 07:20:15;;;;;;;46.30;24.83;;;1.60;99.90;;;;;;5131980;27;20223;-71
2021/12/08 07:22:47;;;;;;;39.55;21.27;;;1.60;99.90;;;;;;5127749;27;20310;-71
2021/12/08 07:25:17;;;;;;;41.47;23.75;;;1.60;99.90;;;;;;5125047;27;20206;-64
2021/12/08 07:27:46;;;;;;;46.22;24.35;;;1.60;99.90;;;;;;5114687;27;20298;-67
2021/12/08 07:30:19;;;;;;;44.35;22.20;;;1.60;99.90;;;;;;5106871;28;20596;-65
2021/12/08 07:32:48;;;;;;;37.08;20.92;;;1.70;99.90;;;;;;5102713;28;20655;-67
2021/12/08 07:35:21;;;;;;;47.80;22.83;;;1.70;99.90;;;;;;5100856;28;20696;-65
2021/12/08 07:37:50;;;;;;;46.30;22.50;;;1.70;99.90;;;;;;5100724;28;20199;-65
2021/12/08 07:40:22;;;;;;;43.92;23.83;;;1.70;99.90;;;;;;5100297;27;20781;-68
2021/12/08 07:42:52;;;;;;;36.95;22.58;;;1.70;99.90;;;;;;5099991;28;20466;-69
2021/12/08 07:45:30;;;;;;;53.25;24.50;;;1.80;99.90;;;;;;5099628;28;20199;-68
2021/12/08 07:48:00;;;;;;;48.78;23.58;;;1.80;99.90;;;;;;5100386;28;20298;-66
2021/12/08 07:50:31;;;;;;;41.80;23.23;;;1.80;99.90;;;;;;5099756;28;20230;-67
2021/12/08 07:53:00;;;;;;;38.92;21.98;;;1.80;99.90;;;;;;5100196;28;20290;-66
2021/12/08 07:55:34;;;;;;;47.90;23.13;;;1.80;99.90;;;;;;5099083;27;20673;-66
2021/12/08 07:58:04;;;;;;;44.10;23.58;;;1.80;99.90;;;;;;5099145;28;20211;-64
2021/12/08 08:00:37;;;;;;;50.05;22.40;;;1.80;99.90;;;;;;5099261;28;20220;-65
2021/12/08 08:03:06;;;;;;;43.80;24.00;;;1.80;99.90;;;;;;5099562;28;20207;-66
2021/12/08 08:05:35;;;;;;;38.33;22.75;;;1.90;99.90;;;;;;5099370;28;20200;-65
2021/12/08 08:08:09;;;;;;;43.50;23.48;;;1.90;99.90;;;;;;5107670;28;20272;-66
2021/12/08 08:10:44;;;;;;;49.10;23.05;;;1.80;99.90;;;;;;5117184;28;20219;-64
2021/12/08 08:13:16;;;;;;;43.72;21.50;;;1.80;99.90;;;;;;5099825;28;20291;-65
2021/12/08 08:15:50;;;;;;;37.53;21.20;;;1.80;99.90;;;;;;5099274;28;20694;-65
2021/12/08 08:18:24;;;;;;;36.67;20.60;;;1.80;99.90;;;;;;5099046;28;20199;-65
2021/12/08 08:20:55;;;;;;;40.25;23.02;;;1.90;99.90;;;;;;5099393;28;20602;-67
2021/12/08 08:23:27;;;;;;;42.92;23.85;;;1.90;99.90;;;;;;5099782;28;20271;-67
2021/12/08 08:25:57;;;;;;;42.78;22.73;;;1.90;99.90;;;;;;5100792;27;20228;-67
2021/12/08 08:28:25;;;;;;;43.25;22.52;;;2.00;99.90;;;;;;5103288;28;20199;-66
2021/12/08 08:30:59;;;;;;;39.58;20.80;;;2.00;99.90;;;;;;5101239;28;20219;-66
2021/12/08 08:33:34;;;;;;;40.33;22.40;;;2.00;99.90;;;;;;5100116;28;20208;-66
2021/12/08 08:36:07;;;;;;;35.25;20.60;;;2.00;99.90;;;;;;5107777;27;20862;-66
2021/12/08 08:38:42;;;;;;;46.92;22.60;;;2.00;99.90;;;;;;5109933;27;20219;-68
2021/12/08 08:41:14;;;;;;;43.65;20.00;;;2.00;99.90;;;;;;5110549;27;20263;-65
2021/12/08 08:43:42;;;;;;;35.72;19.67;;;2.10;99.90;;;;;;5108471;27;20199;-67
2021/12/08 08:46:15;;;;;;;37.40;21.50;;;2.00;99.90;;;;;;5108533;27;20192;-65
2021/12/08 08:48:51;;;;;;;38.90;20.80;;;2.10;99.90;;;;;;5109857;27;20747;-65
2021/12/08 08:51:23;;;;;;;40.38;20.90;;;2.10;99.90;;;;;;5108917;27;20211;-65
2021/12/08 08:53:54;;;;;;;37.17;22.02;;;2.10;99.90;;;;;;5111111;27;20197;-68
2021/12/08 08:56:25;;;;;;;38.63;21.52;;;2.10;99.90;;;;;;5110367;27;20275;-66
2021/12/08 08:58:56;;;;;;;39.13;21.52;;;2.10;99.90;;;;;;5108294;27;20313;-66
2021/12/08 09:01:28;;;;;;;37.15;20.50;;;2.20;99.90;;;;;;5107959;27;20187;-67
2021/12/08 09:04:04;;;;;;;35.22;20.75;;;2.20;99.90;;;;;;5109490;27;20560;-66
2021/12/08 09:06:35;;;;;;;38.50;23.38;;;2.20;99.90;;;;;;5108619;27;20260;-64
2021/12/08 09:09:08;;;;;;;38.45;19.98;;;2.20;99.90;;;;;;5107752;27;20219;-67
2021/12/08 09:11:40;;;;;;;45.75;21.08;;;2.20;99.90;;;;;;5108399;27;20217;-66
2021/12/08 09:14:17;;;;;;;32.30;19.70;;;2.30;99.90;;;;;;5107387;27;20283;-68
2021/12/08 09:16:53;;;;;;;40.85;21.73;;;2.30;99.90;;;;;;5107511;27;20291;-67
2021/12/08 09:19:25;;;;;;;37.33;20.85;;;2.40;99.90;;;;;;5107449;27;20300;-67
2021/12/08 09:21:59;;;;;;;36.33;21.00;;;2.50;99.90;;;;;;5107708;28;20198;-69
2021/12/08 09:24:50;;;;;;;34.03;21.33;;;2.60;99.90;;;;;;5109283;27;20219;-67
2021/12/08 09:27:22;;;;;;;37.10;22.20;;;2.70;99.90;;;;;;5107831;28;20278;-69
2021/12/08 09:29:57;;;;;;;33.60;19.88;;;2.70;99.90;;;;;;5107021;28;20223;-68
2021/12/08 09:32:34;;;;;;;36.50;21.67;;;2.80;99.90;;;;;;5108176;27;20530;-65
2021/12/08 09:35:10;;;;;;;35.95;20.55;;;2.80;99.90;;;;;;5109955;28;20686;-69
2021/12/08 09:37:43;;;;;;;32.90;20.10;;;2.80;99.90;;;;;;5107939;28;20685;-67
2021/12/08 09:40:17;;;;;;;40.90;22.33;;;2.70;99.90;;;;;;5106954;27;20542;-68
2021/12/08 09:42:50;;;;;;;33.00;18.00;;;2.70;99.90;;;;;;5107429;27;20742;-70
2021/12/08 09:45:23;;;;;;;34.33;19.85;;;2.70;99.90;;;;;;5109143;28;20483;-68
2021/12/08 09:47:55;;;;;;;33.15;20.15;;;2.80;99.90;;;;;;5108854;28;20672;-69
2021/12/08 09:50:23;;;;;;;34.03;20.15;;;2.80;99.90;;;;;;5107669;28;20316;-69
2021/12/08 09:52:51;;;;;;;36.08;18.50;;;2.80;99.90;;;;;;5106780;28;20219;-68
2021/12/08 09:55:22;;;;;;;35.30;19.92;;;2.80;99.90;;;;;;5107777;28;20295;-70
2021/12/08 09:57:51;;;;;;;32.30;17.83;;;2.70;99.90;;;;;;5106606;27;20797;-68
2021/12/08 10:00:24;;;;;;;37.08;19.77;;;2.70;99.90;;;;;;5108630;27;20294;-69
2021/12/08 10:02:58;;;;;;;31.83;19.20;;;2.70;99.90;;;;;;5106844;27;20192;-68
2021/12/08 10:05:27;;;;;;;40.10;20.55;;;2.70;99.90;;;;;;5109080;28;20207;-70
2021/12/08 10:07:58;;;;;;;32.78;20.20;;;2.90;99.90;;;;;;5109004;28;20438;-69
2021/12/08 10:10:26;;;;;;;32.85;17.35;;;2.90;99.90;;;;;;5105938;28;20247;-69
2021/12/08 10:12:55;;;;;;;32.28;17.98;;;2.90;99.90;;;;;;5108376;27;20237;-69
2021/12/08 10:15:24;;;;;;;30.35;17.58;;;3.00;99.90;;;;;;5104798;28;20483;-69
2021/12/08 10:17:58;;;;;;;33.33;17.75;;;3.00;99.90;;;;;;5109215;27;20195;-69
2021/12/08 10:20:30;;;;;;;30.48;18.65;;;3.00;99.90;;;;;;5108089;28;20459;-71
2021/12/08 10:23:15;;;;;;;32.75;18.85;;;3.00;99.90;;;;;;5108700;27;20201;-70
2021/12/08 10:25:46;;;;;;;35.28;18.33;;;3.00;99.90;;;;;;5106742;28;20222;-70
2021/12/08 10:28:17;;;;;;;29.05;17.27;;;3.10;99.90;;;;;;5109685;27;20206;-69
2021/12/08 10:30:51;;;;;;;32.42;18.75;;;3.10;99.90;;;;;;5109082;28;20294;-69
2021/12/08 10:33:52;;;;;;;32.33;17.42;;;3.10;99.90;;;;;;5125333;28;20215;-70
2021/12/08 10:36:36;;;;;;;28.90;18.08;;;3.10;99.90;;;;;;5122113;27;20443;-70
2021/12/08 10:39:08;;;;;;;29.90;18.90;;;3.20;99.90;;;;;;5121490;27;20315;-70
2021/12/08 10:41:57;;;;;;;26.45;17.23;;;3.20;99.90;;;;;;5115089;27;20192;-70
2021/12/08 10:44:51;;;;;;;31.15;18.52;;;3.20;99.90;;;;;;5113217;27;20280;-69
2021/12/08 10:47:28;;;;;;;28.83;18.13;;;3.20;99.90;;;;;;5112898;27;20245;-69
2021/12/08 10:55:53;;;;;;;28.77;18.95;;;3.30;99.90;;;;;;5104949;27;20209;-68
2021/12/08 10:58:23;;;;;;;30.80;18.10;;;3.50;99.90;;;;;;5109083;27;20203;-69
2021/12/08 11:00:53;;;;;;;25.27;16.55;;;3.50;99.90;;;;;;5111503;27;20263;-69
2021/12/08 11:03:21;;;;;;;25.40;16.23;;;3.60;99.90;;;;;;5108914;27;20188;-69
2021/12/08 11:05:53;;;;;;;34.63;17.23;;;3.50;99.90;;;;;;5111784;27;20202;-68
2021/12/08 11:08:26;;;;;;;24.88;15.00;;;3.60;99.90;;;;;;5110224;27;20196;-69
2021/12/08 11:10:57;;;;;;;33.03;17.05;;;3.60;99.90;;;;;;5109346;27;20202;-68
2021/12/08 11:13:27;;;;;;;25.52;15.48;;;3.50;99.90;;;;;;5114959;27;20207;-67
2021/12/08 11:16:11;;;;;;;22.63;14.82;;;3.60;99.90;;;;;;5114875;27;20196;-68
2021/12/08 11:18:53;;;;;;;23.25;15.95;;;3.70;99.90;;;;;;5118954;27;20220;-67
2021/12/08 11:21:29;;;;;;;25.95;14.48;;;3.80;99.90;;;;;;5113386;27;20822;-67
2021/12/08 11:24:14;;;;;;;22.70;15.18;;;3.80;99.90;;;;;;5118607;27;20195;-69
2021/12/08 11:26:47;;;;;;;22.63;15.90;;;3.80;99.90;;;;;;5122673;27;20272;-69
2021/12/08 11:29:19;;;;;;;22.10;15.98;;;3.90;99.90;;;;;;5123547;27;20244;-69
2021/12/08 11:31:50;;;;;;;23.90;15.52;;;3.90;99.90;;;;;;5123079;27;20205;-69
2021/12/08 11:34:20;;;;;;;28.00;16.30;;;3.90;99.90;;;;;;5124049;27;20366;-68
2021/12/08 11:36:52;;;;;;;24.70;16.05;;;3.90;99.90;;;;;;5123092;27;20294;-69
2021/12/08 11:39:22;;;;;;;24.00;16.38;;;3.80;99.90;;;;;;5121357;27;20867;-69
2021/12/08 11:41:52;;;;;;;28.00;17.02;;;3.80;99.90;;;;;;5122226;27;20290;-69
2021/12/08 11:44:23;;;;;;;23.40;15.35;;;3.80;99.90;;;;;;5122281;27;20263;-69
2021/12/08 11:47:03;;;;;;;26.02;15.05;;;3.90;99.90;;;;;;5112500;27;20274;-68
2021/12/08 11:49:35;;;;;;;22.38;14.65;;;3.80;99.90;;;;;;5108267;27;20218;-67
2021/12/08 11:52:10;;;;;;;24.25;14.60;;;3.80;99.90;;;;;;5110685;27;20209;-69
2021/12/08 11:54:48;;;;;;;22.30;16.13;;;3.80;99.90;;;;;;5109879;27;20219;-67
2021/12/08 11:57:19;;;;;;;23.85;15.60;;;3.70;99.90;;;;;;5110196;27;20213;-67
2021/12/08 11:59:53;;;;;;;27.70;16.13;;;3.70;99.90;;;;;;5109832;27;20218;-67
2021/12/08 12:02:21;;;;;;;24.73;15.15;;;3.70;99.90;;;;;;5113552;27;20191;-70
2021/12/08 12:04:50;;;;;;;25.13;15.30;;;3.80;99.90;;;;;;5109027;27;20192;-67
2021/12/08 12:07:19;;;;;;;30.23;17.30;;;3.80;99.90;;;;;;5109231;27;20206;-69
2021/12/08 12:09:48;;;;;;;20.38;13.80;;;3.80;99.90;;;;;;5110219;27;20218;-67
2021/12/08 12:12:19;;;;;;;23.23;15.27;;;3.90;99.90;;;;;;5111282;27;20253;-67
2021/12/08 12:14:48;;;;;;;21.67;15.95;;;3.90;99.90;;;;;;5108993;27;20249;-69
2021/12/08 12:17:17;;;;;;;25.52;15.52;;;3.90;99.90;;;;;;5111659;27;20290;-69
2021/12/08 12:19:56;;;;;;;21.70;14.38;;;3.90;99.90;;;;;;5109396;27;20259;-67
2021/12/08 12:22:57;;;;;;;23.85;14.77;;;3.90;99.90;;;;;;5108963;27;20278;-69
2021/12/08 12:25:35;;;;;;;24.25;14.75;;;3.90;99.90;;;;;;5108947;27;20198;-68
2021/12/08 12:28:25;;;;;;;25.35;14.90;;;3.90;99.90;;;;;;5108495;27;20482;-69
2021/12/08 12:31:03;;;;;;;25.27;15.48;;;3.90;99.90;;;;;;5110433;27;20202;-69
2021/12/08 12:33:40;;;;;;;28.10;15.52;;;3.90;99.90;;;;;;5109649;27;20461;-69
2021/12/08 12:36:18;;;;;;;23.45;15.00;;;3.90;99.90;;;;;;5118033;27;20271;-69
2021/12/08 12:38:48;;;;;;;26.35;15.25;;;4.00;99.90;;;;;;5117748;27;20223;-68
2021/12/08 12:41:29;;;;;;;24.38;16.38;;;4.00;99.90;;;;;;5124504;27;20199;-69
2021/12/08 12:44:19;;;;;;;24.00;15.57;;;4.00;99.90;;;;;;5120500;27;20187;-69
2021/12/08 12:47:28;;;;;;;22.45;14.15;;;4.10;99.90;;;;;;5131622;27;20254;-67
2021/12/08 12:50:26;;;;;;;25.80;15.60;;;4.10;99.90;;;;;;5118730;27;20701;-70
2021/12/08 12:52:56;;;;;;;24.92;15.55;;;4.00;99.90;;;;;;5124280;27;20689;-69
2021/12/08 12:55:29;;;;;;;22.05;15.27;;;4.00;99.90;;;;;;5121880;27;20290;-68
2021/12/08 12:58:16;;;;;;;23.35;15.57;;;4.00;99.90;;;;;;5123718;27;20468;-67
2021/12/08 13:00:48;;;;;;;27.25;15.07;;;4.00;99.90;;;;;;5135580;27;20390;-67
2021/12/08 13:03:38;;;;;;;28.52;16.27;;;4.00;99.90;;;;;;5124273;27;20255;-67
2021/12/08 13:06:08;;;;;;;26.92;17.20;;;4.00;99.90;;;;;;5120034;27;20230;-70
2021/12/08 13:08:38;;;;;;;28.70;17.05;;;4.00;99.90;;;;;;5119047;27;20534;-69
2021/12/08 13:11:41;;;;;;;24.02;15.88;;;3.90;99.90;;;;;;5118760;27;20681;-69
2021/12/08 13:14:20;;;;;;;23.10;16.02;;;3.90;99.90;;;;;;5119178;27;20489;-70
2021/12/08 13:17:12;;;;;;;24.20;15.25;;;4.00;99.90;;;;;;5109832;27;20195;-67
2021/12/08 13:19:43;;;;;;;32.10;14.52;;;4.10;99.90;;;;;;5110291;27;20211;-68
2021/12/08 13:22:46;;;;;;;25.60;16.55;;;4.10;99.90;;;;;;5107800;28;20646;-69
2021/12/08 13:25:43;;;;;;;26.27;16.17;;;4.20;99.90;;;;;;5117724;27;20199;-69
2021/12/08 13:28:20;;;;;;;27.13;14.77;;;4.20;99.90;;;;;;5113218;28;20227;-69
2021/12/08 13:30:52;;;;;;;25.80;14.95;;;4.20;99.90;;;;;;5119284;27;20203;-69
2021/12/08 13:33:29;;;;;;;27.88;16.77;;;4.20;99.90;;;;;;5119882;28;20207;-69
2021/12/08 13:35:59;;;;;;;27.48;16.73;;;4.20;99.90;;;;;;5119466;27;20333;-69